Time;durP1;ratioP1;P1;durP2;ratioP2;P2;SDS_P1;SDS_P2;PMS_P1;PMS_P2;Temp;Humidity;BMP_temperature;BMP_pressure;BME280_temperature;BME280_humidity;BME280_pressure;Samples;Min_cycle;Max_cycle;Signal;HPM_P1;HPM_P2
2022/04/05 00:00:47;;;;;;;0.10;0.10;;;;;;;23.47;17.18;96913.28;4995765;28;20026;-74
2022/04/05 00:03:12;;;;;;;0.10;0.10;;;;;;;23.44;17.31;96910.13;5004988;28;20029;-73
2022/04/05 00:05:38;;;;;;;0.10;0.10;;;;;;;23.44;17.45;96912.88;5015123;28;20026;-73
2022/04/05 00:08:03;;;;;;;0.10;0.10;;;;;;;23.46;17.47;96904.34;5015247;28;20023;-74
2022/04/05 00:10:29;;;;;;;0.10;0.10;;;;;;;23.46;17.49;96900.81;5014895;28;20026;-74
2022/04/05 00:12:54;;;;;;;0.10;0.10;;;;;;;23.41;17.38;96894.50;5014835;28;20026;-73
2022/04/05 00:15:23;;;;;;;0.10;0.10;;;;;;;23.44;17.54;96887.56;5015071;28;20037;-74
2022/04/05 00:17:48;;;;;;;0.10;0.10;;;;;;;23.42;17.39;96884.38;5015079;28;20080;-74
2022/04/05 00:20:14;;;;;;;0.10;0.10;;;;;;;23.44;17.44;96885.63;5014979;28;20033;-74
2022/04/05 00:22:39;;;;;;;0.10;0.10;;;;;;;23.43;17.31;96884.03;5014953;28;20037;-74
2022/04/05 00:25:05;;;;;;;0.10;0.10;;;;;;;23.42;17.48;96874.28;5014944;28;20026;-75
2022/04/05 00:27:31;;;;;;;0.10;0.10;;;;;;;23.43;17.38;96869.63;5014602;28;20460;-74
2022/04/05 00:29:56;;;;;;;0.10;0.10;;;;;;;23.41;17.30;96859.06;5014354;28;20026;-74
2022/04/05 00:32:22;;;;;;;0.10;0.10;;;;;;;23.41;17.46;96850.91;5014734;28;20053;-73
2022/04/05 00:34:47;;;;;;;0.10;0.10;;;;;;;23.40;17.35;96849.34;5014669;28;20026;-73
2022/04/05 00:37:13;;;;;;;0.10;0.10;;;;;;;23.38;17.50;96846.16;5014357;28;20484;-74
2022/04/05 00:39:38;;;;;;;0.10;0.10;;;;;;;23.41;17.51;96848.19;5014590;28;20033;-75
2022/04/05 00:42:04;;;;;;;0.10;0.10;;;;;;;23.40;17.47;96843.91;5014594;28;20030;-74
2022/04/05 00:44:29;;;;;;;0.10;0.10;;;;;;;23.38;17.50;96835.25;5013865;28;20029;-75
2022/04/05 00:46:55;;;;;;;0.10;0.10;;;;;;;23.37;17.62;96820.09;5014351;28;20499;-74
2022/04/05 00:49:29;;;;;;;0.10;0.10;;;;;;;23.36;17.52;96823.16;5014184;28;20424;-73
2022/04/05 00:51:55;;;;;;;0.10;0.10;;;;;;;23.39;17.59;96811.56;5014167;28;20123;-75
2022/04/05 00:54:20;;;;;;;0.10;0.10;;;;;;;23.41;17.58;96814.69;5014279;28;20484;-74
2022/04/05 00:56:45;;;;;;;0.10;0.10;;;;;;;23.36;17.37;96804.88;5013085;28;20026;-75
2022/04/05 00:59:11;;;;;;;0.10;0.10;;;;;;;23.39;17.35;96803.38;5012641;28;20030;-74
2022/04/05 01:01:36;;;;;;;0.10;0.10;;;;;;;23.39;17.44;96792.47;5013357;28;20029;-75
2022/04/05 01:04:02;;;;;;;0.10;0.10;;;;;;;23.39;17.37;96787.81;4998687;28;20469;-74
2022/04/05 01:06:30;;;;;;;0.10;0.10;;;;;;;23.37;17.46;96778.41;4994199;28;20031;-75
2022/04/05 01:08:56;;;;;;;0.10;0.10;;;;;;;23.36;17.40;96780.34;4993104;28;20473;-74
2022/04/05 01:11:21;;;;;;;0.10;0.10;;;;;;;23.37;17.41;96762.06;4994531;28;20083;-74
2022/04/05 01:13:47;;;;;;;0.10;0.10;;;;;;;23.36;17.48;96761.28;4994396;28;20030;-75
2022/04/05 01:16:13;;;;;;;0.10;0.10;;;;;;;23.36;17.35;96766.72;4994499;28;20524;-74
2022/04/05 01:18:38;;;;;;;0.10;0.10;;;;;;;23.36;17.42;96755.84;4994416;28;20477;-75
2022/04/05 01:21:04;;;;;;;0.10;0.10;;;;;;;23.33;17.56;96748.38;4994110;28;20050;-74
2022/04/05 01:23:29;;;;;;;0.10;0.10;;;;;;;23.26;17.51;96734.63;4994418;28;20077;-74
2022/04/05 01:25:56;;;;;;;0.10;0.10;;;;;;;23.34;17.65;96741.78;4994378;28;20444;-75
2022/04/05 01:28:22;;;;;;;0.20;0.20;;;;;;;23.35;17.61;96732.47;4994133;28;20046;-74
2022/04/05 01:30:47;;;;;;;0.10;0.10;;;;;;;23.31;17.59;96725.38;4993863;28;20061;-73
2022/04/05 01:33:13;;;;;;;0.10;0.10;;;;;;;23.35;17.32;96720.78;4994118;28;20027;-74
2022/04/05 01:35:39;;;;;;;0.10;0.10;;;;;;;23.35;17.52;96713.41;4993975;28;20057;-74
2022/04/05 01:38:06;;;;;;;0.10;0.10;;;;;;;23.23;17.58;96691.75;4993987;28;20548;-75
2022/04/05 01:40:31;;;;;;;0.10;0.10;;;;;;;23.33;17.52;96710.22;4992976;28;20038;-74
2022/04/05 01:42:57;;;;;;;0.10;0.10;;;;;;;23.32;17.41;96695.06;4994108;28;20026;-74
2022/04/05 01:45:22;;;;;;;0.10;0.10;;;;;;;23.33;17.40;96693.88;4994136;28;20425;-74
2022/04/05 01:47:48;;;;;;;0.10;0.10;;;;;;;23.33;17.47;96691.16;4994179;28;20389;-73
2022/04/05 01:50:13;;;;;;;0.20;0.20;;;;;;;23.29;17.60;96684.09;4993720;28;20335;-74
2022/04/05 01:52:39;;;;;;;0.10;0.10;;;;;;;23.29;17.66;96673.97;4994575;28;20023;-74
2022/04/05 01:55:08;;;;;;;0.10;0.10;;;;;;;23.31;17.48;96676.34;4993964;28;20484;-74
2022/04/05 01:57:33;;;;;;;0.10;0.10;;;;;;;23.32;17.45;96667.81;4993725;28;20413;-74
2022/04/05 01:59:59;;;;;;;0.10;0.10;;;;;;;23.29;17.50;96652.19;4994042;28;20033;-74
2022/04/05 02:02:24;;;;;;;0.10;0.10;;;;;;;23.31;17.41;96655.34;4994657;28;20105;-75
2022/04/05 02:04:50;;;;;;;0.10;0.10;;;;;;;23.28;17.50;96645.16;5013646;28;20072;-74
2022/04/05 02:07:16;;;;;;;0.10;0.10;;;;;;;23.28;17.54;96639.69;5013563;28;20022;-74
2022/04/05 02:09:42;;;;;;;0.10;0.10;;;;;;;23.29;17.56;96637.78;5013441;28;20026;-73
2022/04/05 02:12:09;;;;;;;0.20;0.20;;;;;;;23.24;17.44;96617.84;5014557;28;20491;-74
2022/04/05 02:14:35;;;;;;;0.10;0.10;;;;;;;23.25;17.57;96622.16;5017293;28;20040;-73
2022/04/05 02:17:01;;;;;;;0.13;0.13;;;;;;;23.28;17.62;96612.47;5016125;28;20109;-74
2022/04/05 02:19:26;;;;;;;0.10;0.10;;;;;;;23.28;17.57;96612.47;5016942;28;20033;-74
2022/04/05 02:21:52;;;;;;;0.20;0.20;;;;;;;23.29;17.53;96607.81;5016833;28;20057;-74
2022/04/05 02:24:17;;;;;;;0.10;0.10;;;;;;;23.29;17.43;96608.59;5017021;28;20072;-73
2022/04/05 02:26:46;;;;;;;0.10;0.10;;;;;;;23.28;17.74;96598.84;5017003;28;20033;-73
2022/04/05 02:29:11;;;;;;;0.10;0.10;;;;;;;23.28;17.58;96590.66;5015395;28;20037;-74
2022/04/05 02:31:37;;;;;;;0.10;0.10;;;;;;;23.27;17.50;96593.75;5015819;28;20030;-74
2022/04/05 02:34:02;;;;;;;0.10;0.10;;;;;;;23.28;17.54;96568.88;5017066;28;20484;-74
2022/04/05 02:36:28;;;;;;;0.10;0.10;;;;;;;23.27;17.81;96572.78;5017208;28;20022;-74
2022/04/05 02:38:53;;;;;;;0.10;0.10;;;;;;;23.26;17.50;96565.75;5016458;28;20084;-74
2022/04/05 02:41:18;;;;;;;0.10;0.10;;;;;;;23.26;17.67;96560.28;5016753;28;20036;-73
2022/04/05 02:43:44;;;;;;;0.10;0.10;;;;;;;23.27;17.60;96550.97;5016863;28;20041;-74
2022/04/05 02:46:11;;;;;;;0.10;0.10;;;;;;;23.26;17.49;96549.41;5016735;28;20522;-74
2022/04/05 02:48:43;;;;;;;0.10;0.10;;;;;;;23.26;17.54;96543.94;5016970;28;20116;-74
2022/04/05 02:51:12;;;;;;;0.10;0.10;;;;;;;23.26;17.58;96538.50;5016824;28;20049;-75
2022/04/05 02:53:37;;;;;;;0.20;0.20;;;;;;;23.22;17.55;96532.22;5017229;28;20018;-73
2022/04/05 02:56:03;;;;;;;0.10;0.10;;;;;;;23.13;17.58;96513.41;5016799;28;20476;-74
2022/04/05 02:58:29;;;;;;;0.10;0.10;;;;;;;23.27;17.73;96522.94;5017456;28;20453;-73
2022/04/05 03:00:54;;;;;;;0.13;0.13;;;;;;;23.28;17.48;96514.41;5016627;28;20469;-74
2022/04/05 03:03:19;;;;;;;0.10;0.10;;;;;;;23.32;17.48;96515.25;5009095;28;20457;-74
2022/04/05 03:05:45;;;;;;;0.10;0.10;;;;;;;23.35;17.35;96508.28;4996821;28;20026;-74
2022/04/05 03:08:10;;;;;;;0.10;0.10;;;;;;;23.37;17.32;96509.50;4996667;28;20022;-74
2022/04/05 03:10:36;;;;;;;0.10;0.10;;;;;;;23.36;17.61;96505.19;4996364;28;20473;-74
2022/04/05 03:13:03;;;;;;;0.10;0.10;;;;;;;23.42;17.56;96492.03;4996773;28;20041;-74
2022/04/05 03:15:29;;;;;;;1.65;0.10;;;;;;;23.46;17.27;96494.81;4996389;28;20092;-74
2022/04/05 03:17:55;;;;;;;0.10;0.10;;;;;;;23.50;17.41;96487.50;4996510;28;20034;-74
2022/04/05 03:20:20;;;;;;;0.10;0.10;;;;;;;23.43;17.49;96471.81;4994834;28;20358;-73
2022/04/05 03:22:46;;;;;;;0.10;0.10;;;;;;;23.54;17.37;96471.97;4995754;28;20039;-74
2022/04/05 03:25:11;;;;;;;0.15;0.15;;;;;;;23.59;17.10;96468.91;4996071;28;20042;-74
2022/04/05 03:27:39;;;;;;;0.20;0.20;;;;;;;23.59;17.26;96461.53;4995979;28;20033;-74
2022/04/05 03:30:04;;;;;;;0.15;0.15;;;;;;;23.62;17.35;96458.06;4996050;28;20065;-74
2022/04/05 03:32:30;;;;;;;0.10;0.10;;;;;;;23.67;17.13;96450.72;4994503;28;20110;-74
2022/04/05 03:34:55;;;;;;;0.10;0.10;;;;;;;23.69;17.48;96451.91;4996042;28;20026;-74
2022/04/05 03:37:21;;;;;;;0.10;0.10;;;;;;;23.72;17.38;96444.97;4995975;28;20034;-74
2022/04/05 03:39:46;;;;;;;0.15;0.15;;;;;;;23.71;17.18;96432.47;4996133;28;20053;-74
2022/04/05 03:42:12;;;;;;;0.10;0.10;;;;;;;23.73;17.13;96424.72;4995653;28;20037;-74
2022/04/05 03:44:37;;;;;;;0.13;0.13;;;;;;;23.77;17.32;96431.00;4995841;28;20023;-74
2022/04/05 03:47:03;;;;;;;0.20;0.20;;;;;;;23.75;17.32;96428.66;4995856;28;20027;-74
2022/04/05 03:49:28;;;;;;;0.20;0.20;;;;;;;23.80;17.02;96425.59;4996380;28;20026;-74
2022/04/05 03:51:54;;;;;;;0.22;0.20;;;;;;;23.85;17.28;96415.53;4995343;28;20508;-74
2022/04/05 03:54:19;;;;;;;0.10;0.10;;;;;;;23.85;17.32;96418.25;4995836;28;20075;-73
2022/04/05 03:56:45;;;;;;;0.20;0.20;;;;;;;23.84;16.97;96403.84;4996001;28;20338;-75
2022/04/05 03:59:10;;;;;;;0.10;0.10;;;;;;;23.84;17.07;96401.13;4995431;28;20084;-74
2022/04/05 04:01:36;;;;;;;0.20;0.20;;;;;;;23.86;17.09;96398.81;4995476;28;20098;-74
2022/04/05 04:04:01;;;;;;;0.43;0.10;;;;;;;23.91;17.10;96397.69;5006988;28;20522;-74
2022/04/05 04:06:27;;;;;;;0.20;0.20;;;;;;;23.92;16.93;96377.44;5014882;28;20026;-73
2022/04/05 04:08:52;;;;;;;2.08;0.20;;;;;;;23.95;17.03;96382.16;5014450;28;20457;-73
2022/04/05 04:11:18;;;;;;;0.20;0.20;;;;;;;23.93;17.30;96377.06;5014490;28;20025;-74
2022/04/05 04:13:43;;;;;;;0.10;0.10;;;;;;;23.95;17.12;96368.53;5013667;28;20026;-73
2022/04/05 04:16:09;;;;;;;0.68;0.20;;;;;;;24.01;17.13;96369.75;5014415;28;20449;-72
2022/04/05 04:18:34;;;;;;;0.25;0.25;;;;;;;24.02;16.94;96356.91;5015422;28;20353;-74
2022/04/05 04:20:59;;;;;;;0.10;0.10;;;;;;;24.00;17.06;96357.28;5014732;28;20453;-74
2022/04/05 04:23:25;;;;;;;0.10;0.10;;;;;;;24.05;17.23;96348.75;5014358;28;20084;-74
2022/04/05 04:25:50;;;;;;;0.45;0.45;;;;;;;24.09;17.15;96341.38;5013329;28;20034;-75
2022/04/05 04:28:16;;;;;;;2.38;0.88;;;;;;;24.11;17.19;96330.09;5013925;28;20029;-74
2022/04/05 04:30:42;;;;;;;8.95;3.47;;;;;;;24.14;17.36;96330.13;5014256;28;20052;-74
2022/04/05 04:33:08;;;;;;;1.80;0.80;;;;;;;24.15;17.02;96320.81;5014109;28;20051;-74
2022/04/05 04:35:34;;;;;;;2.65;1.00;;;;;;;24.14;17.24;96319.22;5013324;28;20133;-74
2022/04/05 04:38:00;;;;;;;3.20;1.40;;;;;;;24.17;16.97;96307.56;5012901;28;20048;-74
2022/04/05 04:40:25;;;;;;;27.30;11.43;;;;;;;24.10;17.23;96302.06;5013770;28;20030;-74
2022/04/05 04:42:51;;;;;;;35.08;13.93;;;;;;;24.17;16.96;96293.94;5014288;28;20026;-74
2022/04/05 04:45:16;;;;;;;18.25;7.85;;;;;;;24.16;16.84;96295.09;5013943;28;20472;-74
2022/04/05 04:47:42;;;;;;;25.08;9.95;;;;;;;24.12;17.11;96267.00;5013261;28;20388;-73
2022/04/05 04:50:08;;;;;;;30.73;11.98;;;;;;;24.21;17.19;96274.84;5013786;28;20056;-73
2022/04/05 04:52:33;;;;;;;44.03;15.23;;;;;;;24.24;16.67;96274.09;5013586;28;20115;-73
2022/04/05 04:54:59;;;;;;;38.38;13.98;;;;;;;24.22;17.23;96270.97;5013931;28;20041;-73
2022/04/05 04:57:25;;;;;;;25.05;8.90;;;;;;;24.27;17.21;96269.84;5012613;28;20022;-75
2022/04/05 04:59:51;;;;;;;16.65;6.38;;;;;;;24.31;17.18;96262.47;5014051;28;20029;-74
2022/04/05 05:02:17;;;;;;;47.65;14.75;;;;;;;24.27;17.13;96248.03;5013895;28;20437;-74
2022/04/05 05:04:42;;;;;;;76.47;28.13;;;;;;;24.34;17.23;96245.34;4998133;28;20117;-74
2022/04/05 05:07:08;;;;;;;84.50;29.33;;;;;;;24.34;16.81;96245.34;4994510;28;20393;-74
2022/04/05 05:09:33;;;;;;;57.20;21.40;;;;;;;24.35;16.96;96236.00;4994274;28;20033;-74
2022/04/05 05:12:00;;;;;;;29.65;10.27;;;;;;;24.37;17.10;96225.50;4994830;28;20034;-74
2022/04/05 05:14:27;;;;;;;12.13;4.75;;;;;;;24.38;17.00;96224.31;4994614;28;20041;-74
2022/04/05 05:16:53;;;;;;;8.95;3.63;;;;;;;24.41;17.16;96222.78;4994186;28;20107;-74
2022/04/05 05:19:19;;;;;;;18.92;6.22;;;;;;;24.40;17.29;96215.75;4994239;28;20054;-74
2022/04/05 05:21:45;;;;;;;11.48;4.70;;;;;;;24.43;17.10;96215.00;4994374;28;20420;-73
2022/04/05 05:24:10;;;;;;;9.13;4.03;;;;;;;24.43;16.82;96199.41;4994524;28;20030;-72
2022/04/05 05:26:36;;;;;;;18.35;8.07;;;;;;;24.45;16.62;96202.53;4993037;28;20029;-74
2022/04/05 05:29:01;;;;;;;45.80;17.20;;;;;;;24.50;17.16;96198.66;4994032;28;20034;-74
2022/04/05 05:31:26;;;;;;;19.38;8.13;;;;;;;24.51;16.94;96190.09;4994538;28;20026;-74
2022/04/05 05:33:52;;;;;;;4.72;1.92;;;;;;;24.52;16.74;96186.19;4994061;28;20385;-73
2022/04/05 05:36:17;;;;;;;2.95;1.00;;;;;;;24.56;16.81;96169.91;4994193;28;20029;-74
2022/04/05 05:38:43;;;;;;;1.45;0.60;;;;;;;24.53;16.70;96157.75;4994853;28;20033;-74
2022/04/05 05:41:08;;;;;;;1.50;0.70;;;;;;;24.61;16.68;96168.72;4993733;28;20479;-74
2022/04/05 05:43:34;;;;;;;1.92;0.65;;;;;;;24.66;16.78;96151.97;4994536;28;20065;-74
2022/04/05 05:46:03;;;;;;;1.95;0.95;;;;;;;24.71;16.56;96148.88;4995967;28;20022;-74
2022/04/05 05:48:29;;;;;;;17.38;7.07;;;;;;;24.74;16.57;96148.13;4998037;28;20466;-74
2022/04/05 05:50:55;;;;;;;23.42;8.88;;;;;;;24.74;16.73;96137.19;4998342;28;20058;-74
2022/04/05 05:53:21;;;;;;;6.82;2.83;;;;;;;24.72;16.85;96120.44;4997010;28;20090;-74
2022/04/05 05:55:48;;;;;;;14.10;4.85;;;;;;;24.83;16.63;96128.66;4998899;28;20385;-74
2022/04/05 05:58:13;;;;;;;3.78;2.03;;;;;;;24.83;16.66;96121.22;4998067;28;20022;-74
2022/04/05 06:00:39;;;;;;;3.53;1.33;;;;;;;24.84;16.81;96114.63;4998077;28;20105;-74
2022/04/05 06:03:05;;;;;;;2.92;1.17;;;;;;;24.90;16.94;96101.34;4998883;28;20109;-73
2022/04/05 06:05:31;;;;;;;2.25;1.05;;;;;;;24.90;16.87;96099.41;5018380;28;20030;-74
2022/04/05 06:07:57;;;;;;;2.60;1.10;;;;;;;24.89;16.63;96089.66;5016389;28;20053;-75
2022/04/05 06:10:23;;;;;;;3.88;1.10;;;;;;;24.95;16.48;96098.25;5017698;28;20460;-73
2022/04/05 06:12:49;;;;;;;1.88;1.13;;;;;;;24.98;16.57;96080.31;5017547;28;20113;-73
2022/04/05 06:15:15;;;;;;;4.25;1.08;;;;;;;24.98;16.55;96075.63;5017470;28;20030;-73
2022/04/05 06:17:45;;;;;;;2.33;0.98;;;;;;;25.02;16.43;96081.88;5017189;28;20032;-73
2022/04/05 06:20:12;;;;;;;6.40;0.80;;;;;;;25.06;16.80;96070.94;5016423;28;20049;-73
2022/04/05 06:22:47;;;;;;;1.13;0.63;;;;;;;25.08;16.46;96063.94;5017087;28;20037;-73
2022/04/05 06:25:14;;;;;;;1.70;0.70;;;;;;;25.13;16.61;96065.53;5017327;28;20100;-73
2022/04/05 06:27:39;;;;;;;7.05;2.85;;;;;;;25.11;16.83;96046.00;5016177;28;20041;-74
2022/04/05 06:30:06;;;;;;;17.35;5.97;;;;;;;25.13;16.94;96046.41;5017997;28;20396;-74
2022/04/05 06:32:31;;;;;;;10.00;3.45;;;;;;;25.18;16.56;96046.00;5017755;28;20032;-73
2022/04/05 06:34:56;;;;;;;8.07;2.00;;;;;;;25.23;16.69;96031.97;5017427;28;20392;-73
2022/04/05 06:37:22;;;;;;;20.33;7.72;;;;;;;25.14;16.78;96030.78;5015909;28;20036;-72
2022/04/05 06:39:48;;;;;;;3.38;1.58;;;;;;;25.22;16.58;96014.00;5017185;28;20037;-72
2022/04/05 06:42:14;;;;;;;2.58;0.90;;;;;;;25.27;16.53;96010.13;5016639;28;20361;-73
2022/04/05 06:44:39;;;;;;;3.00;0.90;;;;;;;25.36;16.69;96010.50;5015850;28;20100;-74
2022/04/05 06:47:06;;;;;;;1.80;0.90;;;;;;;25.45;16.25;96004.66;5016403;28;20032;-74
2022/04/05 06:49:32;;;;;;;3.58;0.80;;;;;;;25.47;16.36;96002.28;5016496;28;20025;-73
2022/04/05 06:51:57;;;;;;;1.85;1.10;;;;;;;25.45;16.08;95996.44;5016609;28;20550;-73
2022/04/05 06:54:23;;;;;;;4.05;1.35;;;;;;;25.49;16.47;96000.75;5017280;28;20457;-73
2022/04/05 06:56:48;;;;;;;2.47;1.00;;;;;;;25.52;16.18;95996.44;5016994;28;20022;-72
2022/04/05 06:59:14;;;;;;;2.47;0.90;;;;;;;25.56;16.22;95983.56;5015971;28;20040;-72
2022/04/05 07:01:39;;;;;;;1.50;0.88;;;;;;;25.61;15.90;95979.63;5017138;28;20033;-73
2022/04/05 07:04:05;;;;;;;2.47;0.82;;;;;;;25.59;16.13;95966.34;5009958;28;20026;-74
2022/04/05 07:06:31;;;;;;;1.70;0.90;;;;;;;25.64;15.70;95965.94;4998230;28;20077;-74
2022/04/05 07:08:57;;;;;;;1.85;0.90;;;;;;;25.52;16.09;95971.06;4997815;28;20496;-74
2022/04/05 07:11:22;;;;;;;4.60;1.05;;;;;;;25.65;15.85;95956.59;4999403;28;20019;-72
2022/04/05 07:13:51;;;;;;;2.15;0.93;;;;;;;25.76;15.73;95948.34;4998534;28;20029;-74
2022/04/05 07:16:17;;;;;;;1.55;0.75;;;;;;;25.73;15.84;95954.59;4999726;28;20026;-73
2022/04/05 07:18:42;;;;;;;1.58;0.70;;;;;;;25.79;16.00;95947.56;4998317;28;20030;-73
2022/04/05 07:21:08;;;;;;;0.90;0.60;;;;;;;25.81;16.12;95941.69;4997308;28;20026;-75
2022/04/05 07:23:36;;;;;;;3.53;0.70;;;;;;;25.73;15.98;95931.94;4997712;28;20077;-74
2022/04/05 07:26:01;;;;;;;1.52;0.68;;;;;;;25.83;15.94;95925.66;4996857;28;20042;-73
2022/04/05 07:28:27;;;;;;;2.35;0.60;;;;;;;25.81;15.78;95920.59;4997337;28;20057;-74
2022/04/05 07:30:52;;;;;;;1.05;0.57;;;;;;;25.85;16.05;95920.56;5003508;28;20029;-73
2022/04/05 07:33:18;;;;;;;1.17;0.50;;;;;;;25.86;16.01;95914.69;5015032;28;20375;-74
2022/04/05 07:35:44;;;;;;;1.23;0.50;;;;;;;25.92;16.02;95915.06;5015234;28;20066;-73
2022/04/05 07:38:09;;;;;;;0.45;0.40;;;;;;;25.93;16.01;95910.41;5014057;28;20365;-73
2022/04/05 07:40:51;;;;;;;0.50;0.40;;;;;;;25.92;15.79;95906.84;5000954;28;20041;-73
2022/04/05 07:43:24;;;;;;;0.77;0.40;;;;;;;25.91;16.14;95891.66;4997630;28;20034;-73
2022/04/05 07:45:51;;;;;;;0.90;0.50;;;;;;;25.96;15.70;95890.50;4998522;28;20030;-75
2022/04/05 07:48:18;;;;;;;1.30;0.65;;;;;;;26.00;15.85;95893.97;4998477;28;20030;-76
2022/04/05 07:50:43;;;;;;;1.73;0.40;;;;;;;25.98;15.80;95888.91;4996759;28;20064;-74
2022/04/05 07:53:09;;;;;;;1.67;0.50;;;;;;;26.02;15.63;95889.66;4996944;28;20026;-74
2022/04/05 07:55:34;;;;;;;2.20;0.50;;;;;;;26.09;15.60;95885.31;4996347;28;20042;-74
2022/04/05 07:57:59;;;;;;;1.02;0.60;;;;;;;26.10;15.58;95881.44;4996182;28;20081;-75
2022/04/05 08:00:26;;;;;;;2.50;0.40;;;;;;;26.07;15.60;95874.00;4996330;28;20037;-74
2022/04/05 08:02:52;;;;;;;0.52;0.40;;;;;;;26.12;15.78;95870.84;4995971;28;20123;-75
2022/04/05 08:05:18;;;;;;;1.90;0.38;;;;;;;26.04;15.88;95876.38;4996959;28;20412;-74
2022/04/05 08:07:43;;;;;;;1.00;0.47;;;;;;;26.16;15.65;95864.16;4995642;28;20380;-73
2022/04/05 08:10:09;;;;;;;0.75;0.30;;;;;;;26.13;15.72;95864.19;4978478;28;20022;-74
2022/04/05 08:12:39;;;;;;;1.65;0.40;;;;;;;26.08;15.80;95870.09;4996836;28;20088;-74
2022/04/05 08:15:05;;;;;;;0.93;0.50;;;;;;;26.11;15.78;95864.59;4996009;28;20110;-74
2022/04/05 08:17:31;;;;;;;30.20;12.52;;;;;;;26.16;15.98;95866.13;4995951;28;20057;-73
2022/04/05 08:19:56;;;;;;;6.63;2.80;;;;;;;26.19;15.77;95865.34;4996121;28;20388;-76
2022/04/05 08:22:23;;;;;;;3.60;1.95;;;;;;;26.14;15.70;95854.81;4995936;28;20022;-75
2022/04/05 08:24:49;;;;;;;5.38;1.70;;;;;;;26.18;15.64;95859.09;4996973;28;20093;-76
2022/04/05 08:27:14;;;;;;;11.82;6.57;;;;;;;26.17;15.54;95854.03;4996464;28;20038;-75
2022/04/05 08:29:41;;;;;;;15.32;7.53;;;;;;;26.25;16.02;95858.28;4995007;28;20112;-75
2022/04/05 08:32:06;;;;;;;7.60;2.70;;;;;;;26.22;15.97;95853.59;4995628;28;20056;-76
2022/04/05 08:34:33;;;;;;;4.18;1.85;;;;;;;26.17;15.56;95851.28;4994984;28;20033;-76
2022/04/05 08:36:59;;;;;;;1.95;1.23;;;;;;;26.20;15.45;95851.25;4995275;28;20033;-77
2022/04/05 08:39:24;;;;;;;1.55;1.05;;;;;;;26.23;15.57;95849.66;5009470;28;20046;-76
2022/04/05 08:41:50;;;;;;;1.75;0.85;;;;;;;26.18;15.77;95839.16;4995262;28;20029;-76
2022/04/05 08:44:20;;;;;;;0.82;0.70;;;;;;;26.05;15.67;95828.69;4994136;28;20028;-76
2022/04/05 08:46:45;;;;;;;1.35;0.43;;;;;;;26.11;15.78;95831.00;4992978;28;20528;-77
2022/04/05 08:49:10;;;;;;;1.33;0.50;;;;;;;26.17;15.60;95838.38;4976499;28;20082;-76
2022/04/05 08:51:36;;;;;;;0.70;0.43;;;;;;;26.12;15.68;95835.28;4992389;28;20093;-75
2022/04/05 08:54:02;;;;;;;1.77;0.45;;;;;;;26.17;15.77;95840.34;4992623;28;20027;-76
2022/04/05 08:56:30;;;;;;;2.97;0.40;;;;;;;26.15;15.53;95831.75;4992449;28;20042;-77
2022/04/05 08:58:56;;;;;;;1.23;0.40;;;;;;;26.17;15.72;95830.16;4992395;28;20060;-76
2022/04/05 09:01:21;;;;;;;10.30;5.50;;;;;;;26.11;15.76;95831.00;4992519;28;20476;-74
2022/04/05 09:03:47;;;;;;;42.75;19.63;;;;;;;26.10;15.95;95824.75;4994464;28;20030;-74
2022/04/05 09:06:25;;;;;;;12.05;5.65;;;;;;;26.20;15.78;95820.41;5012293;28;20041;-73
2022/04/05 09:08:51;;;;;;;18.42;7.32;;;;;;;26.15;15.67;95813.38;5011907;28;20154;-73
2022/04/05 09:11:20;;;;;;;22.42;8.55;;;;;;;26.19;15.69;95816.09;5011595;28;20033;-73
2022/04/05 09:13:58;;;;;;;21.27;9.82;;;;;;;26.04;16.07;95807.19;5011725;28;20034;-72
2022/04/05 09:16:33;;;;;;;8.18;3.50;;;;;;;26.13;15.86;95809.47;5015805;28;20030;-74
2022/04/05 09:19:08;;;;;;;6.13;2.58;;;;;;;26.12;15.61;95808.72;5014725;28;20041;-74
2022/04/05 09:21:53;;;;;;;17.05;7.22;;;;;;;26.16;15.79;95803.97;5012507;28;20057;-74
2022/04/05 09:24:18;;;;;;;9.45;4.03;;;;;;;26.11;15.72;95809.09;5014167;28;20408;-73
2022/04/05 09:26:44;;;;;;;7.63;2.55;;;;;;;26.09;15.86;95811.47;5014516;28;20036;-74
2022/04/05 09:29:10;;;;;;;4.15;1.52;;;;;;;26.05;16.00;95804.06;5012342;28;20034;-75
2022/04/05 09:31:48;;;;;;;2.55;1.02;;;;;;;25.97;15.99;95791.59;5014328;28;20092;-73
2022/04/05 09:34:17;;;;;;;3.03;1.20;;;;;;;26.03;15.68;95809.16;5015412;28;20038;-75
2022/04/05 09:36:44;;;;;;;3.17;0.80;;;;;;;25.93;15.92;95792.78;5017150;28;20037;-73
2022/04/05 09:39:16;;;;;;;0.90;0.60;;;;;;;26.07;15.74;95800.16;5015885;28;20026;-74
2022/04/05 09:41:42;;;;;;;1.05;0.45;;;;;;;26.06;16.00;95807.59;5015318;28;20392;-74
2022/04/05 09:44:07;;;;;;;0.60;0.45;;;;;;;25.94;16.05;95806.09;5014849;28;20026;-74
2022/04/05 09:46:33;;;;;;;0.47;0.40;;;;;;;25.96;15.89;95798.28;5013938;28;20421;-72
2022/04/05 09:49:06;;;;;;;0.82;0.30;;;;;;;26.05;15.97;95806.78;5014544;28;20026;-73
2022/04/05 09:51:43;;;;;;;0.73;0.35;;;;;;;25.91;16.10;95790.47;5015476;28;20058;-74
2022/04/05 09:54:22;;;;;;;0.65;0.28;;;;;;;26.09;16.17;95806.00;5014681;28;20100;-75
2022/04/05 09:56:48;;;;;;;1.77;0.30;;;;;;;26.05;16.21;95806.03;5012912;28;20387;-75
2022/04/05 09:59:18;;;;;;;0.82;0.20;;;;;;;26.07;16.11;95813.84;5014324;28;20041;-76
2022/04/05 10:01:48;;;;;;;0.30;0.20;;;;;;;26.12;15.90;95802.47;5014743;28;20112;-74
2022/04/05 10:04:17;;;;;;;0.20;0.20;;;;;;;26.16;16.02;95795.78;5009203;28;20075;-74
2022/04/05 10:06:44;;;;;;;1.20;0.20;;;;;;;26.21;16.07;95795.34;4993727;28;20101;-74
2022/04/05 10:09:10;;;;;;;0.70;0.30;;;;;;;26.28;16.15;95794.50;4994237;28;20500;-75
2022/04/05 10:11:37;;;;;;;0.40;0.30;;;;;;;26.28;15.64;95791.78;4994192;28;20040;-74
2022/04/05 10:14:02;;;;;;;0.35;0.30;;;;;;;26.22;15.81;95785.97;4993472;28;20030;-75
2022/04/05 10:16:28;;;;;;;0.20;0.20;;;;;;;26.24;15.83;95785.56;4994208;28;20050;-74
2022/04/05 10:19:07;;;;;;;0.65;0.20;;;;;;;26.32;16.09;95792.53;4994602;28;20037;-74
2022/04/05 10:21:36;;;;;;;1.20;0.40;;;;;;;26.36;15.87;95790.53;4994580;28;20049;-74
2022/04/05 10:24:06;;;;;;;1.58;0.60;;;;;;;26.31;16.02;95788.25;4993858;28;20495;-76
2022/04/05 10:26:39;;;;;;;2.22;0.75;;;;;;;26.27;15.79;95781.22;4994057;28;20057;-76
2022/04/05 10:29:08;;;;;;;1.40;0.60;;;;;;;26.34;15.86;95775.72;4994006;28;20026;-77
2022/04/05 10:31:45;;;;;;;0.77;0.60;;;;;;;26.37;15.76;95778.44;4992327;28;20026;-76
2022/04/05 10:34:40;;;;;;;0.70;0.50;;;;;;;26.37;15.54;95770.22;4995338;28;20501;-74
2022/04/05 10:37:10;;;;;;;1.20;0.38;;;;;;;26.35;15.73;95769.06;4998495;28;20034;-72
2022/04/05 10:39:37;;;;;;;0.55;0.30;;;;;;;26.34;15.53;95771.03;4999684;28;20038;-73
2022/04/05 10:42:08;;;;;;;0.30;0.30;;;;;;;26.37;15.53;95763.94;4998633;28;20037;-74
2022/04/05 10:44:36;;;;;;;0.95;0.20;;;;;;;26.33;15.72;95755.78;5000148;28;20457;-74
2022/04/05 10:47:06;;;;;;;0.40;0.30;;;;;;;26.27;15.86;95754.66;4999216;28;20023;-74
2022/04/05 10:49:42;;;;;;;0.20;0.20;;;;;;;26.25;16.26;95751.56;5002478;28;20034;-72
2022/04/05 10:52:11;;;;;;;0.20;0.20;;;;;;;26.35;15.62;95752.63;5001040;28;20112;-74
2022/04/05 10:54:48;;;;;;;0.30;0.20;;;;;;;26.32;15.83;95748.75;4999950;28;20433;-73
2022/04/05 10:57:16;;;;;;;0.38;0.30;;;;;;;26.37;15.91;95758.47;5002420;28;20034;-74
2022/04/05 10:59:47;;;;;;;0.28;0.20;;;;;;;26.40;15.45;95757.66;5002389;28;20037;-74
2022/04/05 11:02:28;;;;;;;0.75;0.30;;;;;;;26.32;16.38;95751.50;5004227;28;20126;-75
2022/04/05 11:05:19;;;;;;;0.55;0.30;;;;;;;26.42;15.88;95753.38;5009940;28;20084;-74
2022/04/05 11:07:54;;;;;;;0.30;0.30;;;;;;;26.35;15.93;95763.59;5013192;28;20047;-74
2022/04/05 11:10:20;;;;;;;0.57;0.30;;;;;;;26.29;15.84;95757.78;5001587;28;20109;-74
2022/04/05 11:12:45;;;;;;;0.70;0.30;;;;;;;26.26;16.23;95755.06;4999137;28;20046;-74
2022/04/05 11:15:12;;;;;;;0.25;0.25;;;;;;;26.28;16.00;95753.47;5003110;28;20027;-74
2022/04/05 11:17:38;;;;;;;1.98;0.30;;;;;;;26.03;16.07;95724.38;4989537;28;20042;-79
2022/04/05 11:20:04;;;;;;;0.30;0.30;;;;;;;26.19;15.97;95753.94;4986447;28;20045;-79
2022/04/05 11:22:34;;;;;;;1.63;0.30;;;;;;;26.11;16.10;95744.22;5002352;28;20031;-79
2022/04/05 11:25:13;;;;;;;0.50;0.30;;;;;;;26.14;15.83;95753.59;5002706;28;20030;-78
2022/04/05 11:27:45;;;;;;;0.40;0.30;;;;;;;26.09;15.85;95746.59;5003013;28;20023;-79
2022/04/05 11:30:25;;;;;;;1.35;0.40;;;;;;;26.10;15.63;95752.84;4982266;28;20031;-80